createdAt,value
2022-11-04T00:02:25.748Z,72.95
2022-11-04T00:04:59.006Z,72.96
2022-11-04T00:07:48.833Z,73.04
2022-11-04T00:10:41.559Z,73.19
2022-11-04T00:13:13.707Z,73.21
2022-11-04T00:16:03.462Z,73.37
2022-11-04T00:18:36.475Z,73.37
2022-11-04T00:21:26.435Z,73.22
2022-11-04T00:24:16.267Z,73.22
2022-11-04T00:27:06.458Z,73.07
2022-11-04T00:29:38.604Z,73.05
2022-11-04T00:32:28.895Z,73.31
2022-11-04T00:35:01.011Z,73.24
2022-11-04T00:37:33.181Z,73.40
2022-11-04T00:40:05.707Z,73.44
2022-11-04T00:42:37.900Z,73.58
2022-11-04T00:45:11.830Z,73.56
2022-11-04T00:47:43.977Z,73.61
2022-11-04T00:50:16.376Z,73.64
2022-11-04T00:52:48.441Z,73.65
2022-11-04T00:55:20.612Z,73.44
2022-11-04T00:57:52.726Z,73.42
2022-11-04T01:00:24.920Z,73.54
2022-11-04T01:02:57.192Z,73.51
2022-11-04T01:05:29.463Z,73.51
2022-11-04T01:08:01.501Z,73.57
2022-11-04T01:10:35.948Z,73.65
2022-11-04T01:13:08.276Z,73.72
2022-11-04T01:15:40.818Z,73.72
2022-11-04T01:18:12.939Z,73.68
2022-11-04T01:20:45.167Z,73.69
2022-11-04T01:23:17.379Z,73.62
2022-11-04T01:25:49.628Z,73.48
2022-11-04T01:28:21.873Z,73.59
2022-11-04T01:30:54.171Z,73.54
2022-11-04T01:33:26.513Z,73.66
2022-11-04T01:36:02.118Z,73.77
2022-11-04T01:38:34.510Z,73.87
2022-11-04T01:41:07.508Z,73.70
2022-11-04T01:43:52.342Z,73.76
2022-11-04T01:46:34.157Z,73.59
2022-11-04T01:49:12.726Z,73.52
2022-11-04T01:51:46.096Z,73.46
2022-11-04T01:54:19.262Z,73.60
2022-11-04T01:56:52.224Z,73.66
2022-11-04T01:59:29.102Z,73.74
2022-11-04T02:02:01.734Z,73.71
2022-11-04T02:04:34.900Z,73.87
2022-11-04T02:07:10.063Z,73.82
2022-11-04T02:09:43.587Z,73.89
2022-11-04T02:12:34.040Z,73.87
2022-11-04T02:15:07.440Z,73.67
2022-11-04T02:18:01.683Z,73.54
2022-11-04T02:20:45.491Z,73.49
2022-11-04T02:23:50.343Z,73.64
2022-11-04T02:26:48.988Z,73.58
2022-11-04T02:29:39.536Z,73.56
2022-11-04T02:32:20.096Z,73.79
2022-11-04T02:35:05.097Z,73.79
2022-11-04T02:37:43.500Z,73.67
2022-11-04T02:40:26.560Z,73.79
2022-11-04T02:43:02.715Z,73.54
2022-11-04T02:45:41.262Z,73.60
2022-11-04T02:48:21.258Z,73.47
2022-11-04T02:50:57.812Z,73.53
2022-11-04T02:53:34.915Z,73.60
2022-11-04T02:56:08.690Z,73.79
2022-11-04T02:58:47.366Z,73.77
2022-11-04T03:01:22.634Z,73.81
2022-11-04T03:04:02.970Z,73.73
2022-11-04T03:06:37.955Z,73.80
2022-11-04T03:09:12.005Z,73.63
2022-11-04T03:11:49.511Z,73.55
2022-11-04T03:14:26.102Z,73.58
2022-11-04T03:17:04.008Z,73.65
2022-11-04T03:19:43.904Z,73.65
2022-11-04T03:22:19.863Z,73.54
2022-11-04T03:24:53.185Z,73.78
2022-11-04T03:27:32.498Z,73.79
2022-11-04T03:30:09.295Z,73.94
2022-11-04T03:32:48.019Z,73.96
2022-11-04T03:35:20.902Z,73.83
2022-11-04T03:37:53.208Z,73.77
2022-11-04T03:40:25.890Z,73.91
2022-11-04T03:43:01.042Z,73.68
2022-11-04T03:45:33.445Z,73.63
2022-11-04T03:48:06.442Z,73.73
2022-11-04T03:50:44.280Z,73.58
2022-11-04T03:53:18.783Z,73.85
2022-11-04T03:56:04.746Z,73.94
2022-11-04T03:58:46.051Z,74.05
2022-11-04T04:01:29.657Z,74.07
2022-11-04T04:04:08.570Z,74.07
2022-11-04T04:06:42.780Z,74.09
2022-11-04T04:09:22.483Z,73.96
2022-11-04T04:12:02.452Z,73.90
2022-11-04T04:14:40.969Z,73.79
2022-11-04T04:17:20.181Z,73.81
2022-11-04T04:19:56.116Z,73.90
2022-11-04T04:22:32.014Z,74.02
2022-11-04T04:25:26.865Z,74.17
2022-11-04T04:28:01.467Z,74.18
2022-11-04T04:30:33.889Z,74.25
2022-11-04T04:33:09.462Z,74.06
2022-11-04T04:35:45.266Z,74.11
2022-11-04T04:38:40.448Z,73.85
2022-11-04T04:41:35.656Z,74.00
2022-11-04T04:44:32.690Z,74.00
2022-11-04T04:47:07.001Z,74.09
2022-11-04T04:49:50.202Z,74.14
2022-11-04T04:52:23.372Z,74.11
2022-11-04T04:54:55.521Z,74.21
2022-11-04T04:57:27.680Z,74.11
2022-11-04T04:59:59.823Z,74.35
2022-11-04T05:02:31.742Z,74.17
2022-11-04T05:05:04.606Z,74.05
2022-11-04T05:07:36.815Z,73.94
2022-11-04T05:10:11.733Z,73.98
2022-11-04T05:12:59.813Z,74.01
2022-11-04T05:15:32.593Z,74.28
2022-11-04T05:18:05.108Z,74.14
2022-11-04T05:20:40.350Z,74.20
2022-11-04T05:23:13.816Z,74.32
2022-11-04T05:25:46.362Z,74.31
2022-11-04T05:28:18.556Z,74.17
2022-11-04T05:30:50.754Z,74.14
2022-11-04T05:33:22.880Z,74.04
2022-11-04T05:35:54.944Z,74.11
2022-11-04T05:38:27.283Z,74.06
2022-11-04T05:41:01.726Z,74.27
2022-11-04T05:43:34.229Z,74.29
2022-11-04T05:46:07.010Z,74.33
2022-11-04T05:48:40.672Z,74.37
2022-11-04T05:51:15.929Z,74.25
2022-11-04T05:53:46.511Z,74.28
2022-11-04T05:56:18.961Z,74.31
2022-11-04T05:58:51.229Z,74.31
2022-11-04T06:01:36.114Z,73.89
2022-11-04T06:04:15.733Z,74.00
2022-11-04T06:06:48.424Z,74.10
2022-11-04T06:09:20.580Z,74.12
2022-11-04T06:11:52.740Z,74.16
2022-11-04T06:14:25.610Z,74.27
2022-11-04T06:16:57.766Z,74.22
2022-11-04T06:19:30.057Z,74.29
2022-11-04T06:22:04.066Z,74.33
2022-11-04T06:24:36.159Z,74.31
2022-11-04T06:27:08.736Z,74.29
2022-11-04T06:29:41.851Z,74.26
2022-11-04T06:32:15.915Z,74.10
2022-11-04T06:34:48.183Z,74.02
2022-11-04T06:37:20.300Z,74.08
2022-11-04T06:39:52.351Z,74.10
2022-11-04T06:42:26.045Z,74.37
2022-11-04T06:44:58.140Z,74.34
2022-11-04T06:47:30.284Z,74.36
2022-11-04T06:50:02.339Z,74.45
2022-11-04T06:52:39.456Z,74.35
2022-11-04T06:55:14.233Z,74.22
2022-11-04T06:57:46.332Z,74.13
2022-11-04T07:00:19.507Z,74.17
2022-11-04T07:02:51.712Z,74.10
2022-11-04T07:05:24.084Z,74.15
2022-11-04T07:07:56.792Z,74.19
2022-11-04T07:10:29.137Z,74.29
2022-11-04T07:13:01.305Z,74.51
2022-11-04T07:15:33.578Z,74.45
2022-11-04T07:18:07.225Z,74.60
2022-11-04T07:20:40.320Z,74.58
2022-11-04T07:23:12.411Z,74.56
2022-11-04T07:25:44.553Z,74.30
2022-11-04T07:28:16.742Z,74.34
2022-11-04T07:30:48.865Z,74.24
2022-11-04T07:33:20.982Z,74.26
2022-11-04T07:35:57.073Z,74.66
2022-11-04T07:38:30.481Z,74.60
2022-11-04T07:41:03.630Z,74.68
2022-11-04T07:43:35.720Z,74.62
2022-11-04T07:46:11.484Z,74.63
2022-11-04T07:48:43.565Z,74.57
2022-11-04T07:51:18.268Z,74.24
2022-11-04T07:53:50.902Z,74.46
2022-11-04T07:56:24.245Z,74.41
2022-11-04T07:58:56.641Z,74.49
2022-11-04T08:01:28.808Z,74.55
2022-11-04T08:04:01.917Z,74.51
2022-11-04T08:06:34.120Z,74.62
2022-11-04T08:09:06.299Z,74.67
2022-11-04T08:11:38.506Z,74.69
2022-11-04T08:14:11.851Z,74.61
2022-11-04T08:16:43.893Z,74.76
2022-11-04T08:19:16.648Z,74.75
2022-11-04T08:21:48.769Z,74.49
2022-11-04T08:24:21.164Z,74.59
2022-11-04T08:26:53.437Z,74.42
2022-11-04T08:29:25.756Z,74.47
2022-11-04T08:31:58.059Z,74.60
2022-11-04T08:34:30.481Z,74.66
2022-11-04T08:37:02.645Z,74.91
2022-11-04T08:39:34.765Z,74.84
2022-11-04T08:42:06.957Z,74.89
2022-11-04T08:44:40.712Z,74.87
2022-11-04T08:47:12.829Z,74.85
2022-11-04T08:49:44.920Z,74.76
2022-11-04T08:52:17.266Z,74.60
2022-11-04T08:54:52.288Z,74.60
2022-11-04T08:57:28.363Z,74.50
2022-11-04T09:00:00.735Z,74.71
2022-11-04T09:02:32.903Z,74.72
2022-11-04T09:05:05.308Z,74.91
2022-11-04T09:07:39.160Z,75.03
2022-11-04T09:10:12.350Z,75.04
2022-11-04T09:12:45.061Z,75.16
2022-11-04T09:15:17.430Z,75.13
2022-11-04T09:17:49.573Z,74.90
2022-11-04T09:20:21.809Z,74.85
2022-11-04T09:22:54.484Z,74.80
2022-11-04T09:25:27.128Z,74.87
2022-11-04T09:27:59.654Z,75.20
2022-11-04T09:30:31.823Z,74.93
2022-11-04T09:33:04.144Z,75.16
2022-11-04T09:35:36.235Z,75.22
2022-11-04T09:38:08.391Z,75.35
2022-11-04T09:40:40.699Z,75.29
2022-11-04T09:43:26.513Z,75.52
2022-11-04T09:45:59.987Z,75.56
2022-11-04T09:48:36.942Z,75.24
2022-11-04T09:51:20.939Z,75.23
2022-11-04T09:54:04.948Z,75.34
2022-11-04T09:56:40.198Z,75.49
2022-11-04T09:59:16.438Z,75.50
2022-11-04T10:01:54.402Z,75.62
2022-11-04T10:04:34.609Z,75.67
2022-11-04T10:07:22.135Z,75.90
2022-11-04T10:10:04.460Z,75.95
2022-11-04T10:13:04.691Z,76.08
2022-11-04T10:15:50.828Z,75.99
2022-11-04T10:18:35.158Z,75.63
2022-11-04T10:21:20.566Z,75.70
2022-11-04T10:24:05.940Z,75.78
2022-11-04T10:26:44.946Z,75.86
2022-11-04T10:29:23.285Z,76.04
2022-11-04T10:31:59.493Z,76.38
2022-11-04T10:34:38.477Z,76.40
2022-11-04T10:37:13.944Z,76.47
2022-11-04T10:39:48.178Z,76.50
2022-11-04T10:42:22.839Z,76.43
2022-11-04T10:44:55.439Z,76.17
2022-11-04T10:47:37.033Z,76.30
2022-11-04T10:50:38.047Z,76.37
2022-11-04T10:53:15.992Z,76.37
2022-11-04T10:55:58.978Z,76.51
2022-11-04T10:58:36.001Z,76.72
2022-11-04T11:01:27.230Z,76.71
2022-11-04T11:04:00.644Z,76.90
2022-11-04T11:06:34.065Z,77.05
2022-11-04T11:09:28.609Z,77.05
2022-11-04T11:12:09.869Z,77.12
2022-11-04T11:14:50.506Z,77.10
2022-11-04T11:17:37.293Z,76.76
2022-11-04T11:20:22.586Z,76.76
2022-11-04T11:22:54.379Z,77.16
2022-11-04T11:25:30.066Z,77.32
2022-11-04T11:28:04.602Z,77.30
2022-11-04T11:30:44.120Z,77.21
2022-11-04T11:33:22.539Z,77.04
2022-11-04T11:35:57.699Z,76.96
2022-11-04T11:38:31.752Z,76.82
2022-11-04T11:41:24.470Z,76.73
2022-11-04T11:44:00.797Z,76.59
2022-11-04T11:46:35.456Z,76.65
2022-11-04T11:49:24.001Z,76.75
2022-11-04T11:51:56.527Z,77.05
2022-11-04T11:54:37.816Z,77.07
2022-11-04T11:57:25.554Z,76.93
2022-11-04T12:03:01.707Z,76.60
2022-11-04T12:11:50.116Z,76.56
2022-11-04T12:14:32.678Z,76.53
2022-11-04T12:17:17.836Z,76.64
2022-11-04T12:20:08.857Z,76.72
2022-11-04T12:22:54.259Z,76.06
2022-11-04T12:25:36.472Z,75.71
2022-11-04T12:28:22.512Z,75.96
2022-11-04T12:31:07.183Z,76.20
2022-11-04T12:33:46.871Z,75.92
2022-11-04T12:36:33.144Z,76.98
2022-11-04T12:39:23.230Z,76.99
2022-11-04T12:42:20.707Z,76.47
2022-11-04T12:45:02.382Z,76.19
2022-11-04T12:47:38.941Z,75.83
2022-11-04T12:50:26.007Z,75.56
2022-11-04T12:53:18.440Z,75.43
2022-11-04T12:56:01.489Z,75.21
2022-11-04T12:58:46.253Z,75.03
2022-11-04T13:01:23.162Z,74.84
2022-11-04T13:04:00.777Z,74.90
2022-11-04T13:06:39.604Z,74.90
2022-11-04T13:09:16.508Z,74.76
2022-11-04T13:11:54.038Z,74.80
2022-11-04T13:14:29.763Z,74.65
2022-11-04T13:17:06.622Z,74.85
2022-11-04T13:19:44.931Z,74.71
2022-11-04T13:22:21.865Z,74.70
2022-11-04T13:24:58.956Z,74.62
2022-11-04T13:27:37.086Z,74.42
2022-11-04T13:30:22.447Z,74.44
2022-11-04T13:32:56.815Z,74.30
2022-11-04T13:35:36.295Z,74.43
2022-11-04T13:38:13.334Z,74.41
2022-11-04T13:40:54.824Z,74.37
2022-11-04T13:43:39.532Z,74.48
2022-11-04T13:46:24.956Z,74.63
2022-11-04T13:49:02.682Z,74.39
2022-11-04T13:51:44.608Z,74.62
2022-11-04T13:54:32.408Z,74.53
2022-11-04T13:57:12.340Z,74.60
2022-11-04T14:00:06.215Z,74.28
2022-11-04T14:02:44.075Z,74.16
2022-11-04T14:05:47.879Z,74.14
2022-11-04T14:08:20.153Z,74.31
2022-11-04T14:11:17.791Z,74.36
2022-11-04T14:14:18.118Z,74.59
2022-11-04T14:16:51.006Z,74.62
2022-11-04T14:20:11.910Z,74.47
2022-11-04T14:22:54.634Z,74.54
2022-11-04T14:25:36.683Z,74.30
2022-11-04T14:28:28.596Z,74.37
2022-11-04T14:31:02.612Z,74.12
2022-11-04T14:33:42.182Z,74.26
2022-11-04T14:36:30.576Z,74.12
2022-11-04T14:39:22.688Z,74.19
2022-11-04T14:42:01.921Z,74.21
2022-11-04T14:44:36.612Z,74.19
2022-11-04T14:47:19.137Z,74.22
2022-11-04T14:49:53.619Z,74.31
2022-11-04T14:52:30.192Z,74.29
2022-11-04T14:55:09.198Z,74.19
2022-11-04T14:57:43.486Z,73.97
2022-11-04T15:00:28.402Z,73.98
2022-11-04T15:03:41.204Z,73.88
2022-11-04T15:06:09.718Z,73.99
2022-11-04T15:08:44.893Z,73.96
2022-11-04T15:11:39.976Z,73.97
2022-11-04T15:14:22.206Z,74.12
2022-11-04T15:16:56.981Z,74.35
2022-11-04T15:19:30.381Z,74.27
2022-11-04T15:22:05.396Z,74.29
2022-11-04T15:24:38.122Z,74.31
2022-11-04T15:27:13.953Z,74.34
2022-11-04T15:29:56.262Z,74.18
2022-11-04T15:32:29.116Z,74.44
2022-11-04T15:35:02.155Z,74.06
2022-11-04T15:37:45.946Z,73.86
2022-11-04T15:40:18.629Z,73.77
2022-11-04T15:42:51.948Z,73.77
2022-11-04T15:45:32.180Z,73.90
2022-11-04T15:48:39.960Z,73.89
2022-11-04T15:51:20.574Z,74.17
2022-11-04T15:53:56.583Z,74.03
2022-11-04T15:56:31.573Z,74.17
2022-11-04T15:59:09.724Z,74.19
2022-11-04T16:01:50.184Z,74.10
2022-11-04T16:04:25.324Z,73.94
2022-11-04T16:07:22.995Z,73.93
2022-11-04T16:09:56.439Z,73.77
2022-11-04T16:12:36.379Z,73.93
2022-11-04T16:15:22.766Z,73.94
2022-11-04T16:17:54.857Z,74.01
2022-11-04T16:20:27.263Z,74.19
2022-11-04T16:23:01.229Z,74.34
2022-11-04T16:25:36.538Z,74.21
2022-11-04T16:28:17.916Z,74.11
2022-11-04T16:31:01.570Z,74.15
2022-11-04T16:33:33.859Z,74.23
2022-11-04T16:36:13.599Z,74.16
2022-11-04T16:38:45.689Z,73.89
2022-11-04T16:41:17.928Z,73.88
2022-11-04T16:43:50.821Z,73.95
2022-11-04T16:46:23.609Z,74.07
2022-11-04T16:48:55.763Z,74.08
2022-11-04T16:51:27.812Z,74.13
2022-11-04T16:53:59.950Z,74.04
2022-11-04T16:56:32.191Z,74.00
2022-11-04T16:59:04.285Z,74.08
2022-11-04T17:01:40.091Z,74.07
2022-11-04T17:04:12.336Z,74.02
2022-11-04T17:06:46.429Z,73.78
2022-11-04T17:09:24.122Z,73.79
2022-11-04T17:11:56.435Z,73.77
2022-11-04T17:14:28.587Z,73.76
2022-11-04T17:17:00.782Z,73.81
2022-11-04T17:19:34.797Z,73.98
2022-11-04T17:22:09.496Z,74.07
2022-11-04T17:24:41.662Z,73.99
2022-11-04T17:27:13.882Z,73.94
2022-11-04T17:29:46.102Z,73.83
2022-11-04T17:32:18.398Z,73.89
2022-11-04T17:34:50.904Z,73.72
2022-11-04T17:37:22.991Z,73.81
2022-11-04T17:39:55.185Z,73.67
2022-11-04T17:42:47.265Z,73.80
2022-11-04T17:45:19.558Z,73.99
2022-11-04T17:47:51.624Z,74.06
2022-11-04T17:50:24.005Z,73.96
2022-11-04T17:52:56.378Z,74.15
2022-11-04T17:55:28.546Z,74.05
2022-11-04T17:58:00.715Z,73.91
2022-11-04T18:00:32.882Z,73.96
2022-11-04T18:03:06.926Z,73.68
2022-11-04T18:05:39.318Z,73.71
2022-11-04T18:08:11.666Z,73.76
2022-11-04T18:10:43.782Z,73.86
2022-11-04T18:13:15.925Z,73.85
2022-11-04T18:15:48.169Z,74.01
2022-11-04T18:28:19.512Z,74.11
2022-11-04T18:30:51.932Z,74.14
2022-11-04T18:33:24.060Z,74.00
2022-11-04T18:35:56.532Z,73.81
2022-11-04T18:38:28.697Z,73.85
2022-11-04T18:41:00.971Z,73.86
2022-11-04T18:43:33.263Z,73.90
2022-11-04T18:46:11.782Z,73.98
2022-11-04T18:48:44.600Z,74.00
2022-11-04T18:51:20.173Z,74.22
2022-11-04T18:53:53.476Z,74.14
2022-11-04T18:56:26.136Z,74.02
2022-11-04T18:58:58.305Z,74.12
2022-11-04T19:01:32.688Z,73.95
2022-11-04T19:04:05.125Z,74.08
2022-11-04T19:06:42.976Z,73.90
2022-11-04T19:09:45.515Z,73.89
2022-11-04T19:12:28.585Z,73.94
2022-11-04T19:15:00.749Z,73.94
2022-11-04T19:17:33.019Z,74.05
2022-11-04T19:20:11.372Z,74.11
2022-11-04T19:22:44.524Z,74.07
2022-11-04T19:25:16.768Z,74.06
2022-11-04T19:28:26.660Z,74.19
2022-11-04T19:31:01.977Z,74.35
2022-11-04T19:33:42.022Z,74.16
2022-11-04T19:36:17.874Z,73.81
2022-11-04T19:38:55.409Z,73.87
2022-11-04T19:41:48.995Z,73.89
2022-11-04T19:44:23.486Z,73.91
2022-11-04T19:46:57.162Z,74.03
2022-11-04T19:49:31.764Z,74.36
2022-11-04T19:52:06.130Z,74.32
2022-11-04T19:54:46.966Z,74.28
2022-11-04T19:57:23.915Z,74.33
2022-11-04T20:00:06.866Z,74.27
2022-11-04T20:02:50.940Z,74.16
2022-11-04T20:05:27.216Z,74.10
2022-11-04T20:08:06.197Z,74.03
2022-11-04T20:10:42.396Z,74.04
2022-11-04T20:13:40.560Z,74.14
2022-11-04T20:16:19.871Z,74.07
2022-11-04T20:18:56.789Z,74.27
2022-11-04T20:21:30.730Z,74.29
2022-11-04T20:24:05.362Z,74.36
2022-11-04T20:26:38.911Z,74.29
2022-11-04T20:29:11.669Z,74.48
2022-11-04T20:31:43.785Z,74.44
2022-11-04T20:34:17.010Z,74.25
2022-11-04T20:36:49.299Z,74.11
2022-11-04T20:39:22.723Z,74.36
2022-11-04T20:41:54.995Z,74.40
2022-11-04T20:44:27.192Z,74.19
2022-11-04T20:46:59.335Z,74.53
2022-11-04T20:49:31.703Z,74.65
2022-11-04T20:52:03.921Z,74.62
2022-11-04T20:54:36.245Z,74.72
2022-11-04T20:57:08.694Z,74.67
2022-11-04T20:59:40.937Z,74.51
2022-11-04T21:02:14.525Z,74.45
2022-11-04T21:04:46.837Z,74.47
2022-11-04T21:07:20.151Z,74.62
2022-11-04T21:09:52.371Z,74.70
2022-11-04T21:12:24.543Z,74.63
2022-11-04T21:14:56.863Z,74.77
2022-11-04T21:17:29.060Z,74.96
2022-11-04T21:20:01.496Z,74.85
2022-11-04T21:22:33.908Z,75.10
2022-11-04T21:25:06.729Z,75.07
2022-11-04T21:27:39.020Z,75.31
2022-11-04T21:30:13.383Z,75.23
2022-11-04T21:32:45.493Z,75.27
2022-11-04T21:35:17.824Z,75.26
2022-11-04T21:37:50.043Z,75.22
2022-11-04T21:40:22.424Z,75.20
2022-11-04T21:42:54.764Z,75.34
2022-11-04T21:45:27.729Z,75.39
2022-11-04T21:47:59.944Z,75.62
2022-11-04T21:50:32.695Z,75.88
2022-11-04T21:53:05.226Z,75.92
2022-11-04T21:55:37.515Z,75.97
2022-11-04T21:58:09.988Z,76.05
2022-11-04T22:00:42.554Z,76.40
2022-11-04T22:03:15.126Z,76.30
2022-11-04T22:05:47.475Z,76.34
2022-11-04T22:08:21.205Z,76.11
2022-11-04T22:10:54.191Z,76.11
2022-11-04T22:13:26.821Z,76.38
2022-11-04T22:15:59.195Z,76.19
2022-11-04T22:18:33.593Z,76.47
2022-11-04T22:21:08.220Z,76.66
2022-11-04T22:23:40.977Z,76.61
2022-11-04T22:26:15.469Z,76.94
2022-11-04T22:28:48.180Z,76.68
2022-11-04T22:31:23.583Z,77.02
2022-11-04T22:33:56.326Z,77.21
2022-11-04T22:36:28.600Z,76.96
2022-11-04T22:39:01.202Z,76.70
2022-11-04T22:41:35.785Z,76.83
2022-11-04T22:44:09.096Z,76.72
2022-11-04T22:46:41.493Z,77.03
2022-11-04T22:49:14.625Z,77.13
2022-11-04T22:51:46.772Z,77.12
2022-11-04T22:54:19.384Z,77.44
2022-11-04T22:56:51.577Z,77.23
2022-11-04T22:59:23.888Z,77.30
2022-11-04T23:01:56.237Z,77.34
2022-11-04T23:04:28.727Z,77.79
2022-11-04T23:07:00.888Z,77.91
2022-11-04T23:09:33.900Z,77.88
2022-11-04T23:12:24.142Z,77.65
2022-11-04T23:15:14.219Z,77.59
2022-11-04T23:18:04.192Z,77.69
2022-11-04T23:20:36.436Z,77.83
2022-11-04T23:23:26.191Z,77.89
2022-11-04T23:25:58.303Z,77.95
2022-11-04T23:28:48.129Z,77.99
2022-11-04T23:31:20.227Z,78.23
2022-11-04T23:34:09.962Z,78.50
2022-11-04T23:36:59.923Z,78.30
2022-11-04T23:39:32.168Z,78.42
2022-11-04T23:42:19.571Z,78.62
2022-11-04T23:45:11.935Z,78.31
2022-11-04T23:48:04.227Z,78.38
2022-11-04T23:50:54.954Z,78.59
2022-11-04T23:53:45.062Z,78.79
2022-11-04T23:56:35.604Z,78.74
2022-11-04T23:59:27.648Z,78.64
